Time;durP1;ratioP1;P1;durP2;ratioP2;P2;SDS_P1;SDS_P2;PMS_P1;PMS_P2;Temp;Humidity;BMP_temperature;BMP_pressure;BME280_temperature;BME280_humidity;BME280_pressure;Samples;Min_cycle;Max_cycle;Signal;HPM_P1;HPM_P2
2023/09/28 00:01:02;;;;;;;8.45;7.75;;;;;;;18.37;83.83;95923.97;5009590;28;20203;-86
2023/09/28 00:03:29;;;;;;;8.05;7.45;;;;;;;18.41;83.33;95922.53;5007636;28;20199;-85
2023/09/28 00:05:54;;;;;;;7.93;7.28;;;;;;;18.41;82.83;95909.50;5009670;28;20242;-86
2023/09/28 00:08:21;;;;;;;8.20;7.40;;;;;;;18.36;82.95;95912.75;4999324;28;20231;-86
2023/09/28 00:10:46;;;;;;;8.25;7.55;;;;;;;18.30;83.00;95919.63;4990129;28;20207;-86
2023/09/28 00:13:13;;;;;;;8.35;7.57;;;;;;;18.28;83.58;95932.06;4990143;28;20297;-85
2023/09/28 00:15:40;;;;;;;9.10;8.02;;;;;;;18.29;83.58;95931.06;4994103;28;20286;-85
2023/09/28 00:18:07;;;;;;;10.02;9.02;;;;;;;18.25;83.86;95934.34;5006415;28;20203;-85
2023/09/28 00:20:32;;;;;;;9.35;7.40;;;;;;;18.27;83.79;95934.94;5009284;28;20579;-86
2023/09/28 00:22:58;;;;;;;8.32;7.63;;;;;;;18.20;83.84;95942.78;5009255;28;20203;-86
2023/09/28 00:25:24;;;;;;;8.35;7.45;;;;;;;18.24;83.63;95937.97;5009365;28;20230;-85
2023/09/28 00:27:52;;;;;;;8.15;7.35;;;;;;;18.19;84.08;95943.81;5009264;28;20687;-86
2023/09/28 00:30:22;;;;;;;9.77;7.85;;;;;;;18.18;84.05;95936.19;5009220;28;20203;-86
2023/09/28 00:32:51;;;;;;;8.75;7.90;;;;;;;18.15;84.12;95947.84;4989541;28;20246;-85
2023/09/28 00:35:17;;;;;;;8.63;7.88;;;;;;;18.02;84.90;95955.78;4998876;28;20215;-86
2023/09/28 00:37:44;;;;;;;8.52;7.70;;;;;;;17.99;85.29;95969.25;5007620;28;20214;-86
2023/09/28 00:40:18;;;;;;;9.00;8.10;;;;;;;18.03;85.42;95970.41;4994816;28;20711;-87
2023/09/28 00:42:45;;;;;;;8.75;7.00;;;;;;;18.07;85.27;95969.00;4994685;28;20253;-86
2023/09/28 00:45:11;;;;;;;8.23;7.50;;;;;;;18.09;85.10;95961.72;5008806;28;20267;-86
2023/09/28 00:47:39;;;;;;;8.40;7.60;;;;;;;18.16;84.95;95966.91;5008938;28;20564;-85
2023/09/28 00:50:10;;;;;;;8.85;7.65;;;;;;;18.10;84.80;95965.13;5006499;28;20854;-86
2023/09/28 00:52:38;;;;;;;8.05;7.35;;;;;;;18.10;85.10;95971.16;5008946;28;20616;-86
2023/09/28 00:55:06;;;;;;;8.27;7.57;;;;;;;18.03;85.43;95972.22;5008971;28;20218;-85
2023/09/28 00:57:33;;;;;;;8.00;7.25;;;;;;;18.09;85.38;95977.38;5009483;28;20225;-86
2023/09/28 00:59:59;;;;;;;8.98;7.35;;;;;;;18.11;85.48;95979.75;5008531;28;20286;-86
2023/09/28 01:02:26;;;;;;;7.30;6.70;;;;;;;18.17;85.05;95976.31;5008653;28;20289;-85
2023/09/28 01:04:52;;;;;;;8.63;7.25;;;;;;;18.20;84.94;95971.47;5009017;28;20596;-86
2023/09/28 01:07:29;;;;;;;10.27;7.10;;;;;;;18.19;85.42;95988.13;5003422;28;20254;-85
2023/09/28 01:09:57;;;;;;;8.00;7.30;;;;;;;18.16;86.62;96006.78;5006428;28;20198;-85
2023/09/28 01:12:22;;;;;;;7.53;6.93;;;;;;;18.19;87.16;96023.81;5000642;28;20589;-86
2023/09/28 01:14:50;;;;;;;7.70;7.00;;;;;;;18.19;87.75;96035.03;4997022;28;20211;-85
2023/09/28 01:17:16;;;;;;;7.72;7.13;;;;;;;18.16;88.91;96048.50;5019470;28;20255;-86
2023/09/28 01:19:43;;;;;;;7.82;7.10;;;;;;;18.19;88.81;96045.47;5009916;28;20208;-85
2023/09/28 01:22:13;;;;;;;8.15;6.85;;;;;;;18.18;88.58;96045.66;4991495;28;20214;-86
2023/09/28 01:24:39;;;;;;;7.93;7.32;;;;;;;18.07;89.76;96064.63;5008413;28;20230;-86
2023/09/28 01:27:07;;;;;;;7.50;6.90;;;;;;;18.12;89.45;96060.34;5006218;28;20199;-85
2023/09/28 01:29:34;;;;;;;8.10;7.40;;;;;;;18.10;90.07;96066.78;5008537;28;20800;-86
2023/09/28 01:32:00;;;;;;;7.50;6.80;;;;;;;18.14;89.69;96063.53;5008848;28;20207;-86
2023/09/28 01:34:26;;;;;;;7.40;6.70;;;;;;;18.14;89.71;96066.16;5008655;28;20700;-86
2023/09/28 01:36:51;;;;;;;7.47;6.88;;;;;;;18.17;88.99;96052.69;5009331;28;20207;-86
2023/09/28 01:39:20;;;;;;;6.90;6.40;;;;;;;18.18;88.59;96051.69;5007042;28;20211;-86
2023/09/28 01:41:46;;;;;;;7.05;6.45;;;;;;;18.16;88.65;96042.47;4996566;28;20229;-86
2023/09/28 01:44:12;;;;;;;7.28;6.63;;;;;;;18.15;88.30;96040.88;4994733;28;20314;-86
2023/09/28 01:46:37;;;;;;;6.88;6.28;;;;;;;18.15;88.33;96033.06;4991761;28;20696;-85
2023/09/28 01:49:04;;;;;;;7.60;6.90;;;;;;;18.14;87.95;96028.84;4991887;28;20191;-86
2023/09/28 01:51:29;;;;;;;6.63;6.00;;;;;;;18.12;87.72;96029.06;4994127;28;20195;-85
2023/09/28 01:53:56;;;;;;;7.78;7.00;;;;;;;18.15;87.26;96018.22;4992360;28;20704;-85
2023/09/28 01:56:23;;;;;;;7.47;6.22;;;;;;;18.18;87.04;96009.19;5009213;28;20211;-86
2023/09/28 01:58:49;;;;;;;7.28;6.63;;;;;;;18.18;86.26;95994.34;5006943;28;20203;-86
2023/09/28 02:01:21;;;;;;;7.93;6.70;;;;;;;18.11;86.17;95998.81;4992457;28;20204;-86
2023/09/28 02:03:48;;;;;;;7.22;6.63;;;;;;;18.08;86.51;96001.84;4992371;28;20298;-86
2023/09/28 02:06:14;;;;;;;7.78;7.00;;;;;;;18.09;86.80;96008.63;4992638;28;20290;-86
2023/09/28 02:08:41;;;;;;;7.25;6.55;;;;;;;18.11;86.76;96004.00;4999961;28;20203;-86
2023/09/28 02:11:06;;;;;;;7.85;6.50;;;;;;;18.01;86.72;96008.13;4999154;28;20647;-85
2023/09/28 02:13:34;;;;;;;7.93;6.78;;;;;;;17.97;86.82;96012.16;5012075;28;20290;-85
2023/09/28 02:16:00;;;;;;;7.20;6.60;;;;;;;17.93;86.76;96014.38;5012290;28;20195;-87
2023/09/28 02:18:26;;;;;;;7.03;6.43;;;;;;;17.87;86.97;96013.44;5020642;28;20206;-85
2023/09/28 02:20:54;;;;;;;6.75;6.25;;;;;;;17.88;86.88;96007.22;4992656;28;20706;-86
2023/09/28 02:23:22;;;;;;;6.53;5.90;;;;;;;17.90;86.86;96023.41;4998850;28;20214;-86
2023/09/28 02:25:47;;;;;;;6.85;6.25;;;;;;;17.86;86.98;96018.84;5011850;28;20699;-86
2023/09/28 02:28:13;;;;;;;7.03;6.40;;;;;;;17.87;87.15;96023.06;5006687;28;20255;-86
2023/09/28 02:30:40;;;;;;;6.97;6.38;;;;;;;17.87;87.00;96026.47;5010080;28;20260;-86
2023/09/28 02:33:07;;;;;;;8.55;6.45;;;;;;;17.88;87.28;96029.88;5011992;28;20211;-86
2023/09/28 02:35:33;;;;;;;6.53;6.03;;;;;;;17.90;87.68;96040.84;5011551;28;20232;-86
2023/09/28 02:37:59;;;;;;;8.13;6.10;;;;;;;17.89;87.88;96047.91;5009600;28;20285;-86
2023/09/28 02:40:25;;;;;;;6.10;5.50;;;;;;;17.93;88.37;96048.25;4991914;28;20211;-86
2023/09/28 02:42:52;;;;;;;6.65;6.07;;;;;;;17.91;88.38;96052.88;4995923;28;20199;-86
2023/09/28 02:45:17;;;;;;;6.82;6.22;;;;;;;17.92;88.50;96055.25;5010978;28;20226;-87
2023/09/28 02:47:47;;;;;;;6.55;5.95;;;;;;;17.93;88.54;96063.88;4995911;28;20343;-86
2023/09/28 02:50:13;;;;;;;6.75;6.00;;;;;;;17.93;88.67;96061.28;5011378;28;20706;-86
2023/09/28 02:52:41;;;;;;;5.93;5.43;;;;;;;17.95;88.73;96059.25;5011015;28;20213;-86
2023/09/28 02:55:08;;;;;;;6.10;5.60;;;;;;;17.94;88.29;96055.06;5011125;28;20219;-86
2023/09/28 02:57:35;;;;;;;5.53;5.13;;;;;;;17.97;88.06;96052.03;5011556;28;20209;-86
2023/09/28 03:00:11;;;;;;;6.43;5.88;;;;;;;17.93;88.03;96050.84;5007799;28;20203;-86
2023/09/28 03:02:38;;;;;;;6.32;5.72;;;;;;;17.97;87.64;96046.03;5011444;28;20206;-86
2023/09/28 03:05:06;;;;;;;6.00;5.50;;;;;;;17.93;87.38;96049.03;5002685;28;20223;-86
2023/09/28 03:07:32;;;;;;;6.43;5.93;;;;;;;17.92;87.34;96044.03;4995643;28;20262;-86
2023/09/28 03:09:58;;;;;;;6.32;5.82;;;;;;;17.91;87.15;96035.44;4991226;28;20290;-86
2023/09/28 03:12:24;;;;;;;5.90;5.40;;;;;;;17.89;86.52;96040.06;4991595;28;20290;-86
2023/09/28 03:14:53;;;;;;;5.75;5.35;;;;;;;17.87;86.56;96031.66;4990858;28;20741;-86
2023/09/28 03:17:19;;;;;;;5.90;5.40;;;;;;;17.82;86.55;96028.88;5014205;28;20203;-85
2023/09/28 03:19:45;;;;;;;6.18;5.70;;;;;;;17.83;86.55;96033.09;5010262;28;20210;-85
2023/09/28 03:22:14;;;;;;;6.60;6.07;;;;;;;17.73;86.69;96027.53;5010394;28;20770;-86
2023/09/28 03:24:39;;;;;;;6.10;5.60;;;;;;;17.74;86.73;96042.16;5010542;28;20226;-87
2023/09/28 03:27:08;;;;;;;6.22;5.72;;;;;;;17.72;86.80;96038.97;5010859;28;20202;-86
2023/09/28 03:29:33;;;;;;;5.65;4.90;;;;;;;17.74;86.64;96039.56;4996789;28;20290;-86
2023/09/28 03:32:00;;;;;;;6.75;5.45;;;;;;;17.74;86.52;96036.94;4998906;28;20310;-85
2023/09/28 03:34:25;;;;;;;5.78;5.28;;;;;;;17.75;86.46;96042.94;5008615;28;20219;-86
2023/09/28 03:36:52;;;;;;;6.07;5.57;;;;;;;17.68;86.74;96039.63;5010366;28;20558;-86
2023/09/28 03:39:23;;;;;;;6.30;5.70;;;;;;;17.68;86.80;96048.22;4999270;28;20206;-86
2023/09/28 03:41:49;;;;;;;5.75;5.25;;;;;;;17.72;86.88;96046.78;4991336;28;20604;-86
2023/09/28 03:44:16;;;;;;;5.80;5.03;;;;;;;17.76;86.32;96044.56;5006970;28;20277;-86
2023/09/28 03:46:42;;;;;;;5.40;5.00;;;;;;;17.69;87.05;96042.00;5003314;28;20199;-86
2023/09/28 03:49:09;;;;;;;6.15;5.18;;;;;;;17.71;86.70;96042.56;5005664;28;20203;-85
2023/09/28 03:51:35;;;;;;;6.05;4.97;;;;;;;17.71;86.56;96045.19;5010095;28;20593;-86
2023/09/28 03:54:01;;;;;;;6.88;5.65;;;;;;;17.71;86.19;96037.38;5009910;28;20315;-87
2023/09/28 03:56:29;;;;;;;5.40;4.90;;;;;;;17.71;86.14;96037.38;5010077;28;20695;-86
2023/09/28 03:58:56;;;;;;;5.50;5.10;;;;;;;17.64;86.35;96044.44;5009429;28;20209;-86
2023/09/28 04:01:22;;;;;;;7.00;5.47;;;;;;;17.59;86.60;96052.84;5001595;28;20222;-87
2023/09/28 04:03:49;;;;;;;5.80;5.22;;;;;;;17.58;86.71;96050.44;4996744;28;20226;-85
2023/09/28 04:06:19;;;;;;;6.28;5.60;;;;;;;17.52;86.78;96057.25;5005491;28;20790;-86
2023/09/28 04:08:46;;;;;;;5.57;4.90;;;;;;;17.53;86.81;96056.25;5009498;28;20195;-86
2023/09/28 04:11:12;;;;;;;5.70;5.20;;;;;;;17.50;86.62;96054.09;5004634;28;20194;-86
2023/09/28 04:13:40;;;;;;;5.75;5.25;;;;;;;17.52;86.50;96057.25;4989927;28;20219;-86
2023/09/28 04:16:07;;;;;;;6.28;5.13;;;;;;;17.52;86.37;96048.66;5001975;28;20198;-86
2023/09/28 04:18:33;;;;;;;5.50;5.00;;;;;;;17.50;86.40;96054.09;5009946;28;20221;-86
2023/09/28 04:21:00;;;;;;;5.85;5.32;;;;;;;17.52;86.36;96046.84;5008210;28;20672;-86
2023/09/28 04:23:27;;;;;;;5.80;5.13;;;;;;;17.51;86.08;96047.84;5010684;28;20217;-87
2023/09/28 04:25:53;;;;;;;6.45;5.40;;;;;;;17.51;86.22;96047.84;5009845;28;20223;-87
2023/09/28 04:28:20;;;;;;;5.22;4.82;;;;;;;17.50;86.35;96050.69;5003200;28;20196;-87
2023/09/28 04:30:51;;;;;;;5.70;5.20;;;;;;;17.51;86.33;96047.84;4992444;28;20640;-87
2023/09/28 04:33:17;;;;;;;6.03;5.43;;;;;;;17.50;85.83;96041.06;4995433;28;20293;-87
2023/09/28 04:35:44;;;;;;;5.30;4.80;;;;;;;17.50;85.73;96043.69;4992718;28;20233;-87
2023/09/28 04:38:10;;;;;;;6.07;5.47;;;;;;;17.47;86.03;96045.91;5010911;28;20823;-86
2023/09/28 04:40:37;;;;;;;5.55;5.00;;;;;;;17.43;86.21;96052.53;5010836;28;20222;-88
2023/09/28 04:43:04;;;;;;;5.50;5.00;;;;;;;17.46;86.13;96049.50;5009570;28;20195;-87
2023/09/28 04:45:30;;;;;;;5.32;4.82;;;;;;;17.47;86.26;96049.31;4991077;28;20234;-86
2023/09/28 04:47:58;;;;;;;5.28;4.70;;;;;;;17.50;85.73;96045.50;4990270;28;20549;-88
2023/09/28 04:50:25;;;;;;;7.10;4.85;;;;;;;17.46;85.71;96045.09;4989580;28;20207;-87
2023/09/28 04:52:51;;;;;;;5.13;4.72;;;;;;;17.45;85.90;96053.13;4999333;28;20294;-87
2023/09/28 04:55:18;;;;;;;6.13;4.57;;;;;;;17.45;85.76;96053.13;5007040;28;20229;-87
2023/09/28 04:57:47;;;;;;;9.52;5.05;;;;;;;17.46;85.92;96050.31;5004302;28;20206;-83
2023/09/28 05:00:16;;;;;;;6.18;5.13;;;;;;;17.46;86.27;96060.72;4989681;28;20211;-87
2023/09/28 05:02:43;;;;;;;5.10;4.60;;;;;;;17.47;86.20;96058.91;5003765;28;20199;-86
2023/09/28 05:05:12;;;;;;;6.38;4.70;;;;;;;17.48;86.16;96053.50;5008455;28;20226;-87
2023/09/28 05:07:38;;;;;;;4.75;4.35;;;;;;;17.51;86.08;96052.28;5008097;28;20209;-87
2023/09/28 05:10:07;;;;;;;5.28;4.78;;;;;;;17.53;85.90;96052.84;5007657;28;20229;-86
2023/09/28 05:12:33;;;;;;;7.75;4.60;;;;;;;17.53;85.60;96045.03;5009009;28;20415;-87
2023/09/28 05:15:00;;;;;;;7.20;4.70;;;;;;;17.50;85.57;96046.28;5008658;28;20251;-87
2023/09/28 05:17:26;;;;;;;4.97;4.47;;;;;;;17.51;85.53;96053.06;5010386;28;20218;-87
2023/09/28 05:19:55;;;;;;;5.75;5.20;;;;;;;17.39;85.30;96036.50;5008665;28;20276;-86
2023/09/28 05:22:23;;;;;;;7.13;5.28;;;;;;;17.36;85.81;96046.53;5008993;28;20607;-87
2023/09/28 05:24:49;;;;;;;5.57;4.90;;;;;;;17.35;85.61;96052.75;5010736;28;20572;-87
2023/09/28 05:27:16;;;;;;;5.80;5.20;;;;;;;17.36;86.01;96059.53;5012527;28;20217;-89
2023/09/28 05:29:42;;;;;;;5.60;5.10;;;;;;;17.40;85.93;96050.31;5012875;28;20253;-88
2023/09/28 05:32:09;;;;;;;6.15;5.07;;;;;;;17.36;86.30;96056.94;5013125;28;20226;-89
2023/09/28 05:34:36;;;;;;;8.43;5.35;;;;;;;17.31;86.60;96068.00;5012343;28;20233;-86
2023/09/28 05:37:03;;;;;;;8.05;4.85;;;;;;;17.33;86.85;96073.78;5012782;28;20695;-89
2023/09/28 05:39:30;;;;;;;6.40;4.75;;;;;;;17.36;86.66;96075.16;5012979;28;20294;-87
2023/09/28 05:42:01;;;;;;;5.65;5.00;;;;;;;17.31;87.23;96081.00;5011108;28;20203;-87
2023/09/28 05:44:29;;;;;;;8.15;5.32;;;;;;;17.38;86.89;96086.97;5002505;28;20763;-86
2023/09/28 05:46:55;;;;;;;6.82;5.55;;;;;;;17.41;87.18;96089.16;5012319;28;20311;-86
2023/09/28 05:49:22;;;;;;;8.90;6.38;;;;;;;17.51;87.48;96092.13;5012364;28;20202;-87
2023/09/28 05:51:48;;;;;;;9.70;5.88;;;;;;;17.60;87.51;96096.09;5012690;28;20210;-86
2023/09/28 05:54:15;;;;;;;7.93;5.97;;;;;;;17.66;87.83;96104.94;5000332;28;20219;-86
2023/09/28 05:56:44;;;;;;;13.70;12.40;;;;;;;17.74;87.09;96098.66;4995860;28;20199;-86
2023/09/28 05:59:10;;;;;;;7.82;6.50;;;;;;;17.76;87.72;96104.47;5012195;28;20307;-87
2023/09/28 06:01:37;;;;;;;5.88;5.28;;;;;;;17.86;87.59;96107.44;5016917;28;20206;-86
2023/09/28 06:04:05;;;;;;;5.60;5.10;;;;;;;17.93;87.42;96108.97;5004451;28;20308;-86
2023/09/28 06:06:32;;;;;;;5.20;4.70;;;;;;;17.99;87.33;96107.34;5008229;28;20226;-86
2023/09/28 06:08:58;;;;;;;6.15;4.90;;;;;;;18.06;87.20;96108.13;5011524;28;20797;-86
2023/09/28 06:11:25;;;;;;;6.47;5.20;;;;;;;18.10;87.78;96117.09;5011872;28;20203;-87
2023/09/28 06:13:53;;;;;;;7.43;5.20;;;;;;;18.12;87.57;96117.69;5010394;28;20254;-87
2023/09/28 06:16:21;;;;;;;5.72;5.03;;;;;;;18.13;87.64;96103.63;5014136;28;20205;-86
2023/09/28 06:18:47;;;;;;;4.97;4.47;;;;;;;18.16;87.48;96112.84;5031631;28;20256;-86
2023/09/28 06:21:14;;;;;;;5.57;4.93;;;;;;;18.24;87.37;96120.44;5031593;28;20213;-86
2023/09/28 06:23:41;;;;;;;5.07;4.60;;;;;;;18.33;86.62;96097.50;5031616;28;20233;-86
2023/09/28 06:26:08;;;;;;;5.97;5.28;;;;;;;18.38;86.45;96095.06;5031057;28;20740;-87
2023/09/28 06:28:34;;;;;;;5.43;4.95;;;;;;;18.53;85.77;96093.72;5027619;28;20224;-87
2023/09/28 06:31:02;;;;;;;9.55;5.07;;;;;;;18.77;84.84;96073.06;5009389;28;20210;-87
2023/09/28 06:33:29;;;;;;;5.78;4.68;;;;;;;18.95;83.55;96062.66;5010724;28;20207;-87
2023/09/28 06:36:08;;;;;;;5.45;4.93;;;;;;;19.16;82.80;96040.53;5011347;28;20727;-86
2023/09/28 06:38:34;;;;;;;5.25;4.63;;;;;;;19.33;81.25;96005.78;5011477;28;20202;-86
2023/09/28 06:41:01;;;;;;;7.25;5.15;;;;;;;19.48;79.89;95987.09;5011219;28;20213;-87
2023/09/28 06:43:27;;;;;;;9.50;5.00;;;;;;;19.61;79.26;95980.94;5001226;28;20203;-87
2023/09/28 06:45:54;;;;;;;4.35;4.00;;;;;;;19.77;78.27;95969.84;5009929;28;20222;-87
2023/09/28 06:48:22;;;;;;;5.45;4.95;;;;;;;19.98;76.91;95939.75;5011174;28;20665;-87
2023/09/28 06:50:48;;;;;;;7.10;5.85;;;;;;;20.25;75.82;95919.97;5002984;28;20199;-87
2023/09/28 06:53:16;;;;;;;5.05;4.65;;;;;;;20.60;74.72;95901.63;4991816;28;20892;-86
2023/09/28 06:55:44;;;;;;;5.03;4.10;;;;;;;20.81;72.52;95847.84;4990896;28;20290;-86
2023/09/28 06:58:13;;;;;;;5.18;3.50;;;;;;;21.00;70.70;95807.38;4991891;28;20203;-86
2023/09/28 07:00:43;;;;;;;4.47;4.07;;;;;;;21.20;70.33;95790.44;4991099;28;20623;-86
2023/09/28 07:03:09;;;;;;;6.00;3.92;;;;;;;21.34;69.82;95778.63;5010756;28;20207;-86
2023/09/28 07:05:38;;;;;;;7.40;3.83;;;;;;;21.45;69.71;95769.06;4996111;28;20608;-86
2023/09/28 07:08:05;;;;;;;5.38;4.40;;;;;;;21.37;69.63;95772.88;4990556;28;20203;-86
2023/09/28 07:10:32;;;;;;;5.03;3.63;;;;;;;21.49;69.00;95755.25;4991128;28;20196;-87
2023/09/28 07:13:02;;;;;;;8.55;4.60;;;;;;;21.19;69.55;95776.50;4991214;28;20208;-87
2023/09/28 07:15:29;;;;;;;4.00;3.70;;;;;;;20.81;70.63;95805.97;4990490;28;20223;-86
2023/09/28 07:17:56;;;;;;;4.13;3.50;;;;;;;20.58;72.34;95851.38;5011524;28;20207;-86
2023/09/28 07:20:25;;;;;;;4.53;3.65;;;;;;;20.55;72.91;95869.34;5010548;28;20849;-86
2023/09/28 07:22:53;;;;;;;3.95;3.63;;;;;;;20.73;72.30;95871.00;5010460;28;20293;-85
2023/09/28 07:25:22;;;;;;;4.30;3.90;;;;;;;21.22;71.20;95843.38;5010689;28;20229;-86
2023/09/28 07:27:52;;;;;;;4.35;3.55;;;;;;;21.71;69.56;95803.28;5010755;28;20294;-86
2023/09/28 07:30:19;;;;;;;8.90;8.00;;;;;;;22.09;67.19;95745.84;5011169;28;20241;-86
2023/09/28 07:32:46;;;;;;;3.75;3.45;;;;;;;22.37;66.32;95709.69;5011133;28;20225;-86
2023/09/28 07:35:13;;;;;;;4.70;3.97;;;;;;;22.71;65.53;95699.75;5009096;28;20245;-86
2023/09/28 07:37:42;;;;;;;5.95;3.70;;;;;;;22.93;65.14;95672.66;5015783;28;20276;-86
2023/09/28 07:40:23;;;;;;;;;;;;;;;;;;;;;
2023/09/28 07:42:49;;;;;;;3.83;3.53;;;;;;;23.50;62.59;95619.41;5006982;28;20575;-86
2023/09/28 07:45:18;;;;;;;4.68;3.80;;;;;;;23.80;62.34;95593.25;4997977;28;20747;-83
2023/09/28 07:47:44;;;;;;;3.67;3.35;;;;;;;24.04;61.26;95554.91;5002406;28;20249;-85
2023/09/28 07:50:14;;;;;;;5.53;3.40;;;;;;;24.27;60.47;95534.41;5008414;28;20203;-85
2023/09/28 07:52:40;;;;;;;3.80;3.17;;;;;;;24.42;59.12;95497.56;5009728;28;20274;-86
2023/09/28 07:55:08;;;;;;;6.50;3.55;;;;;;;24.68;58.25;95466.69;5009981;28;20721;-85
2023/09/28 07:57:39;;;;;;;4.10;3.35;;;;;;;24.84;58.22;95456.91;5009774;28;20773;-85
2023/09/28 08:00:11;;;;;;;5.28;3.40;;;;;;;24.99;57.86;95433.97;5009899;28;20211;-86
2023/09/28 08:02:38;;;;;;;5.93;3.38;;;;;;;25.15;57.59;95441.78;4990540;28;20211;-86
2023/09/28 08:05:14;;;;;;;4.03;3.35;;;;;;;25.30;56.62;95400.31;5026207;28;20236;-86
2023/09/28 08:07:47;;;;;;;4.00;3.15;;;;;;;25.37;55.47;95328.84;5007669;28;20226;-88
2023/09/28 08:10:20;;;;;;;5.97;3.40;;;;;;;25.45;54.73;95280.78;5009832;28;20696;-86
2023/09/28 08:12:48;;;;;;;5.45;3.30;;;;;;;25.51;54.83;95295.50;5010011;28;20218;-86
2023/09/28 08:15:15;;;;;;;5.47;3.40;;;;;;;25.73;54.49;95276.63;5000874;28;20237;-86
2023/09/28 08:17:45;;;;;;;3.75;3.20;;;;;;;25.92;53.70;95247.66;5018056;28;20544;-88
2023/09/28 08:20:16;;;;;;;3.58;3.30;;;;;;;25.98;52.74;95207.72;5028885;28;20198;-88
2023/09/28 08:22:43;;;;;;;3.80;3.50;;;;;;;25.83;52.08;95151.72;5014740;28;20206;-88
2023/09/28 08:25:10;;;;;;;4.00;3.65;;;;;;;25.84;51.67;95148.81;5008953;28;20719;-86
2023/09/28 08:27:37;;;;;;;4.43;3.85;;;;;;;26.07;51.71;95147.22;5009793;28;20218;-88
2023/09/28 08:30:10;;;;;;;7.82;3.50;;;;;;;26.27;50.95;95086.22;5009443;28;20195;-87
2023/09/28 08:32:36;;;;;;;4.05;3.65;;;;;;;26.35;49.82;95047.88;5009020;28;20218;-88
2023/09/28 08:35:17;;;;;;;5.70;3.72;;;;;;;26.49;50.00;95061.88;5012439;28;20226;-87
2023/09/28 08:37:45;;;;;;;3.97;3.58;;;;;;;26.66;48.66;95003.22;5023709;28;20225;-88
2023/09/28 08:40:13;;;;;;;5.47;3.72;;;;;;;26.67;47.86;94946.69;5009105;28;20206;-87
2023/09/28 08:42:48;;;;;;;4.55;3.80;;;;;;;26.62;47.65;94923.00;5001490;28;20223;-89
2023/09/28 08:45:16;;;;;;;8.60;3.90;;;;;;;26.46;47.17;94909.31;5008986;28;20269;-86
2023/09/28 08:47:48;;;;;;;7.32;4.30;;;;;;;26.43;46.22;94859.72;5009436;28;20223;-86
2023/09/28 08:50:18;;;;;;;4.07;3.67;;;;;;;26.62;46.98;94881.53;5013851;28;20201;-86
2023/09/28 08:52:45;;;;;;;4.00;3.60;;;;;;;26.74;46.24;94873.91;5028935;28;20194;-86
2023/09/28 08:55:21;;;;;;;4.07;3.67;;;;;;;26.96;46.28;94888.28;5012773;28;20234;-86
2023/09/28 08:57:48;;;;;;;4.03;3.50;;;;;;;27.10;45.33;94844.91;4996770;28;20618;-86
2023/09/28 09:00:22;;;;;;;4.47;4.07;;;;;;;27.12;44.80;94805.75;4988818;28;20205;-85
2023/09/28 09:02:50;;;;;;;4.22;3.88;;;;;;;27.03;44.18;94775.81;4987787;28;20203;-86
2023/09/28 09:05:16;;;;;;;5.03;3.78;;;;;;;27.20;44.96;94840.44;4988374;28;20224;-86
2023/09/28 09:07:44;;;;;;;5.20;4.15;;;;;;;27.04;44.66;94797.72;4988531;28;20223;-86
2023/09/28 09:10:21;;;;;;;4.30;3.88;;;;;;;27.22;45.03;94860.22;4991713;28;20210;-86
2023/09/28 09:12:47;;;;;;;4.57;4.05;;;;;;;27.27;45.01;94831.03;5008776;28;20206;-86
2023/09/28 09:15:15;;;;;;;6.07;3.80;;;;;;;27.31;44.92;94839.16;5000099;28;20223;-86
2023/09/28 09:17:42;;;;;;;4.30;3.88;;;;;;;27.22;45.19;94817.94;5017730;28;20281;-86
2023/09/28 09:20:09;;;;;;;4.43;3.53;;;;;;;27.11;46.09;94861.53;5027124;28;20617;-86
2023/09/28 09:22:36;;;;;;;6.00;3.90;;;;;;;27.20;46.22;94888.81;5025802;28;20210;-86
2023/09/28 09:25:03;;;;;;;4.30;3.60;;;;;;;27.21;45.31;94865.81;5027255;28;20214;-86
2023/09/28 09:27:32;;;;;;;5.30;4.03;;;;;;;27.12;45.63;94841.97;5012979;28;20223;-86
2023/09/28 09:30:04;;;;;;;6.28;4.13;;;;;;;27.07;45.33;94824.34;5009146;28;20203;-86
2023/09/28 09:32:32;;;;;;;4.05;3.70;;;;;;;27.07;44.66;94815.66;5008853;28;20711;-86
2023/09/28 09:35:00;;;;;;;4.32;3.85;;;;;;;27.05;44.44;94800.09;5010272;28;20225;-86
2023/09/28 09:37:26;;;;;;;4.20;3.75;;;;;;;27.15;44.60;94799.06;5015452;28;20235;-86
2023/09/28 09:39:53;;;;;;;4.15;3.65;;;;;;;27.07;44.66;94816.44;4996193;28;20287;-86
2023/09/28 09:42:27;;;;;;;5.70;3.95;;;;;;;27.13;45.58;94844.28;4990061;28;20248;-86
2023/09/28 09:44:54;;;;;;;3.97;3.58;;;;;;;27.08;45.57;94870.84;5008081;28;20361;-86
2023/09/28 09:47:21;;;;;;;4.15;3.78;;;;;;;26.97;45.10;94814.00;5008432;28;20699;-86
2023/09/28 09:49:54;;;;;;;4.00;3.60;;;;;;;26.98;45.96;94864.97;5008628;28;20195;-85
2023/09/28 09:52:23;;;;;;;4.97;3.70;;;;;;;26.97;45.38;94844.91;5020087;28;20191;-87
2023/09/28 09:54:49;;;;;;;5.47;4.07;;;;;;;27.04;46.55;94891.00;5019365;28;20312;-86
2023/09/28 09:57:17;;;;;;;7.32;4.07;;;;;;;27.06;46.81;94933.00;5023499;28;20209;-86
2023/09/28 09:59:47;;;;;;;5.63;3.83;;;;;;;26.91;45.97;94902.38;5017708;28;20233;-86
2023/09/28 10:02:24;;;;;;;4.03;3.50;;;;;;;26.93;45.81;94881.72;5021271;28;20198;-86
2023/09/28 10:05:08;;;;;;;4.30;3.90;;;;;;;26.71;46.15;94881.63;5025113;28;20221;-86
2023/09/28 10:07:38;;;;;;;4.72;3.97;;;;;;;26.70;45.97;94880.84;5024927;28;20222;-86
2023/09/28 10:10:06;;;;;;;5.30;3.85;;;;;;;26.68;45.80;94880.38;5029116;28;20199;-86
2023/09/28 10:12:32;;;;;;;4.60;3.78;;;;;;;26.72;46.34;94875.28;5028209;28;20252;-86
2023/09/28 10:15:00;;;;;;;4.35;3.35;;;;;;;26.78;46.48;94890.72;5020985;28;20219;-87
2023/09/28 10:17:28;;;;;;;5.35;4.43;;;;;;;26.82;46.31;94880.34;5014048;28;20202;-86
2023/09/28 10:19:57;;;;;;;4.10;3.80;;;;;;;26.85;46.54;94911.47;5013447;28;20626;-85
2023/09/28 10:22:25;;;;;;;9.70;8.80;;;;;;;26.82;46.88;94918.13;5030108;28;20249;-87
2023/09/28 10:24:52;;;;;;;10.73;9.65;;;;;;;26.76;47.28;94950.97;5030530;28;20214;-86
2023/09/28 10:27:18;;;;;;;5.85;5.10;;;;;;;26.76;46.98;94948.34;5031655;28;20781;-86
2023/09/28 10:29:45;;;;;;;6.70;4.68;;;;;;;26.78;47.00;94919.00;5031618;28;20214;-85
2023/09/28 10:32:28;;;;;;;6.45;3.72;;;;;;;26.81;46.15;94870.84;5017776;28;20637;-84
2023/09/28 10:35:13;;;;;;;5.18;3.75;;;;;;;26.78;45.38;94850.31;5018684;28;20245;-85
2023/09/28 10:37:40;;;;;;;5.82;3.83;;;;;;;26.71;45.69;94840.16;5006652;28;20257;-85
2023/09/28 10:40:08;;;;;;;6.40;4.15;;;;;;;26.70;46.07;94872.16;5025324;28;20221;-86
2023/09/28 10:42:35;;;;;;;4.57;3.80;;;;;;;26.66;45.97;94863.25;5027639;28;20203;-89
2023/09/28 10:45:06;;;;;;;7.47;3.72;;;;;;;26.67;46.74;94907.06;5011497;28;20227;-90
2023/09/28 10:47:35;;;;;;;4.55;3.42;;;;;;;26.73;46.68;94900.63;5011061;28;20270;-90
2023/09/28 10:50:04;;;;;;;3.83;3.50;;;;;;;26.66;46.46;94895.72;5020391;28;20240;-89
2023/09/28 10:52:31;;;;;;;4.40;3.70;;;;;;;26.60;45.12;94830.09;5027061;28;20198;-89
2023/09/28 10:54:59;;;;;;;4.80;3.85;;;;;;;26.59;46.40;94882.13;5027781;28;20221;-90
2023/09/28 10:57:30;;;;;;;4.22;3.83;;;;;;;26.50;46.38;94891.81;5021713;28;20447;-89
2023/09/28 10:59:59;;;;;;;5.75;3.70;;;;;;;26.49;45.56;94853.28;5029721;28;20206;-86
2023/09/28 11:02:26;;;;;;;5.00;3.40;;;;;;;26.46;46.42;94878.41;5029777;28;20209;-85
2023/09/28 11:04:52;;;;;;;5.90;3.90;;;;;;;26.43;46.17;94876.34;5009576;28;20242;-85
2023/09/28 11:07:20;;;;;;;3.95;3.65;;;;;;;26.41;46.57;94899.63;5010558;28;20223;-86
2023/09/28 11:09:46;;;;;;;5.35;3.90;;;;;;;26.31;45.94;94876.06;5010713;28;20301;-85
2023/09/28 11:12:14;;;;;;;4.22;3.50;;;;;;;26.33;46.25;94871.28;5010780;28;20206;-85
2023/09/28 11:14:42;;;;;;;4.57;3.47;;;;;;;26.25;47.21;94926.56;5007128;28;20227;-86
2023/09/28 11:17:09;;;;;;;6.40;3.85;;;;;;;26.13;46.14;94855.78;5011223;28;20190;-86
2023/09/28 11:19:36;;;;;;;4.65;3.65;;;;;;;26.17;46.79;94883.13;5020802;28;20207;-85
2023/09/28 11:22:03;;;;;;;5.43;3.20;;;;;;;26.22;45.24;94818.94;5020320;28;20214;-86
2023/09/28 11:24:29;;;;;;;4.90;3.70;;;;;;;26.29;45.54;94856.28;5028527;28;20229;-86
2023/09/28 11:26:57;;;;;;;3.83;3.53;;;;;;;26.45;45.73;94870.78;5028350;28;20234;-86
2023/09/28 11:29:25;;;;;;;3.90;3.47;;;;;;;26.52;43.99;94752.38;5026133;28;20947;-86
2023/09/28 11:31:53;;;;;;;6.88;3.60;;;;;;;26.52;42.66;94689.00;5020009;28;20206;-85
2023/09/28 11:34:28;;;;;;;17.63;16.08;;;;;;;26.45;43.66;94715.03;5026052;28;20305;-85
2023/09/28 11:36:56;;;;;;;6.15;5.03;;;;;;;26.35;43.23;94687.00;5011628;28;20206;-85